Ergebnisliste vom: 05.05.2012 - MTB-Altenburg2012 - 31 km

weitere Ergebnisse >>

Platz Plm Plw Stnr. Name,Vorname Verein Endzeit GJ AK Akm Akw RŁckst. Sex WB
1 1   356 Wagler, Julius Team Vogtland 0:53:40 98 m U25 1   0:00:00 m 3
2 2   313 H√§ntschel, Marco Ford Lukat Racing Team/ K√ľhn-Fahrwerkstechnik 0:54:37 82 m U45 1   0:00:57 m 3
3 3   329 Stein, Marcel Team Stein-Bikes 0:54:50 86 m U45 2   0:01:10 m 3
4 4   321 Metzler, Dirk Lowbudget Biker 0:54:57 72 m U45 3   0:01:17 m 3
5 5   347 Schr√∂der, Thomas SCOTT-LIGHTLOUNGE MTB TEAM 0:55:27 75 m U45 4   0:01:47 m 3
6 6   367 Kletzin, Daniel Ambulanc Mobile/SV Hartenstein 0:56:46 88 m U25 2   0:03:06 m 3
7 7   349 Leichsenring, Kevin biEHLER WERKSTEAM 0:56:48 93 m U25 3   0:03:08 m 3
8 8   340 Rochau, Sebastian RC-Dresden 0:57:05 81 m U45 5   0:03:25 m 3
9 9   378 Berger, Anreas Zweiradhaus 0:57:10 69 m U45 6   0:03:30 m 3
10 10   379 Wei√üe, Rico Biker-Boarder.de 0:57:31 79 m U45 7   0:03:51 m 3
11 11   390 Raschke, Thomas FAST-Zweirad-HAUS e.V. 0:57:33 86 m U45 8   0:03:53 m 3
12 12   328 Kandler, Daniel biEHLER WERKSTEAM 0:57:34 81 m U45 9   0:03:54 m 3
13 13   354 Lichan, Paul Luckau L√§uferbund 0:58:01 93 m U25 4   0:04:21 m 3
14 14   324 Schierig, Marcel FAST-Zweirad-HAUS e.V. 0:58:57 84 m U45 10   0:05:17 m 3
15 15   304 Voigt, Andreas FAST-Zweirad-HAUS e.V. 0:59:10 82 m U45 11   0:05:30 m 3
16 16   401 Mayer, Andreas Rittergr√ľn 0:59:30 69 m U45 12   0:05:50 m 3
17 17   408 Bemerl, Detlef Hohstein-Ernstthal 1:00:02 56 m Senioren 1   0:06:22 m 3
18 18   407 Berthold, Andr√© Team Schall & Rauch 1:00:07 71 m U45 13   0:06:27 m 3
19 19   385 K√ľhn, Robert Berlin 1:00:37 80 m U45 14   0:06:57 m 3
20 20   389 G√∂hler, Gerit Chemnitz 1:01:16 80 m U45 15   0:07:36 m 3
21 21   350 Br√§utigam, Thilo Zobes 1:01:18 78 m U45 16   0:07:38 m 3
22 22   320 Tirschmann, Ulf Team ProCycle e.V. 1:01:20 73 m U45 17   0:07:40 m 3
23 23   308 Vetter, Tobias Team Speiche Gera 1:01:21 81 m U45 18   0:07:41 m 3
24 24   301 B√∂hme, Sebastian Helden am Sonntag 1:01:33 82 m U45 19   0:07:53 m 3
25 25   348 Weber, Thomas FAST-Zweirad-HAUS e.V. 1:01:52 73 m U45 20   0:08:12 m 3
26 26   400 Rei√üaus, Stephan Halle 1:01:55 81 m U45 21   0:08:15 m 3
27 27   405 Fritsche, Marsel Langenwetzendorf 1:02:30 77 m U45 22   0:08:50 m 3
28 28   332 Jaslan, Norman Team Auto & Freizeit Chemnitz 1:03:31 80 m U45 23   0:09:51 m 3
29 29   322 Zinn, Mario Karl-Marx-Stadt MTB Club 1:03:40 85 m U45 24   0:10:00 m 3
30 30   403 Ebeling, Johannes Diakinie Leipzig 1:03:47 92 m U25 5   0:10:07 m 3
31 31   357 Schubert, Tom Team Tomic MTB Chemnitz 1:03:49 84 m U45 25   0:10:09 m 3
32 32   377 Laudenbach, Benny Team Stein-Bikes 1:04:07 87 m U45 26   0:10:27 m 3
33 33   358 Neuhaus, Ronny Team Tomic MTB Chemnitz 1:04:26 81 m U45 27   0:10:46 m 3
34 34   373 Sch√∂nfeld, Patrick SSV Seelingst√§dt 1:04:28 92 m U25 6   0:10:48 m 3
35 35   398 Hensel, Carsten Team Vogtland 1:05:13 62 m Senioren 2   0:11:33 m 3
36 36   316 Knewitz, Bj√∂rn Team egoexpress 1:05:28 79 m U45 28   0:11:48 m 3
37 37   394 Klecz, Klaus Team Wurzelh√ľpfer 1:05:59 59 m Senioren 3   0:12:19 m 3
38 38   342 Legner, Markus Team Stein-Bikes 1:06:12 79 m U45 29   0:12:32 m 3
39 39   346 Gro√üst√ľck, Benjamin biEHLER WERKSTEAM 1:06:17 85 m U45 30   0:12:37 m 3
40 40   370 Gasch, Michael Laufverein Limbach 2000 1:06:18 84 m U45 31   0:12:38 m 3
41 41   333 Rost, Christian Fahrraddienst Mende Altenburg 1:06:19 81 m U45 32   0:12:39 m 3
42   1 323 B√ľttner, Kathrin Zobes 1:07:18 82 w U45   1 0:13:38 w 3
43 42   388 Scheffel, Marco FAST-Zweirad-HAUS e.V. 1:07:52 65 m Senioren 4   0:14:12 m 3
44 43   393 Dietz, Michael Team Wurzelh√ľpfer 1:08:23 77 m U45 33   0:14:43 m 3
45 44   391 Plitzsch, Gunnar Schm√∂lln 1:08:47 78 m U45 34   0:15:07 m 3
46 45   404 Rabe, Daniel Diakinie Leipzig 1:08:58 80 m U45 35   0:15:18 m 3
47 46   314 Gustke, Kevin Team Vogtland 1:09:08 93 m U25 7   0:15:28 m 3
48 47   351 Rottluff, Dirk kein 1:09:19 78 m U45 36   0:15:39 m 3
49 48   371 Krebs, Rainer Gera 1:09:21 59 m Senioren 5   0:15:41 m 3
50 49   327 Kukla, Colin FAST-Zweirad-HAUS e.V. 1:10:24 96 m U25 8   0:16:44 m 3
51 50   395 Wittig, Kaj Team wurzelh√ľpfer 1:10:30 69 m U45 37   0:16:50 m 3
52 51   310 Schumann, Frank kein 1:10:51 81 m U45 38   0:17:11 m 3
53   2 399 Irmler, Kristina EBM Team Seyffen 1:11:43 81 w U45   2 0:18:03 w 3
54 52   331 Huml, Marko Team M&M Gernewitz 1:11:47 68 m U45 39   0:18:07 m 3
55 53   303 Albrecht, Steffen Rochlitz 1:12:56 69 m U45 40   0:19:16 m 3
56 54   364 Templin, Batric Altenburg 1:13:58 84 m U45 41   0:20:18 m 3
57 55   317 Poludniok, Andr√© Team egoexpress 1:14:04 79 m U45 42   0:20:24 m 3
58 56   402 R√∂dner, Christfried Diakinie Leipzig 1:14:08 68 m U45 43   0:20:28 m 3
59 57   360 Damm, Ronny   1:14:24 84 m U45 44   0:20:44 m 3
60 58   362 Wuttig, Marco   1:14:25 82 m U45 45   0:20:45 m 3
61 59   361 Breternitz, Andreas   1:14:28 83 m U45 46   0:20:48 m 3
62 60   369 Oblentz, Patrick Altenburg 1:14:30 84 m U45 47   0:20:50 m 3
63 61   396 Rabe, Thomas Saalfeld 1:14:49 69 m U45 48   0:21:09 m 3
64 62   325 Rammler, Denny kein 1:14:53 79 m U45 49   0:21:13 m 3
65 63   319 Pilz, Steffen Team Bergpiraten 1:15:22 71 m U45 50   0:21:42 m 3
66 64   315 H√ľtter, Andreas kein 1:15:54 78 m U45 51   0:22:14 m 3
67   3 334 Lichan, Katrin kein 1:15:58 67 w Senioren   1 0:22:18 w 3
68 65   309 Reichenbach, Dirk Oberwinkel 1:16:07 65 m Senioren 6   0:22:27 m 3
69 66   387 Beyer, Henry Altenburg 1:16:42 61 m Senioren 7   0:23:02 m 3
70 67   337 Zergiebel, Christian SV L√∂bichau 1:17:03 57 m Senioren 8   0:23:23 m 3
71 68   366 Schmiedel, Wolf EBM Team Seyffen 1:17:19 78 m U45 52   0:23:39 m 3
72 69   392 S√ľ√üengut, Mathias Schm√∂lln 1:18:08 85 m U45 53   0:24:28 m 3
73 70   353 Kirmse, Volker SVL√∂bichau 1:18:11 51 m Senioren 9   0:24:31 m 3
74 71   365 Kr√∂del, Sascha Altenburg 1:19:01 82 m U45 54   0:25:21 m 3
75 72   359 Bauch, Steffen Schm√∂lln 1:20:46 66 m Senioren 10   0:27:06 m 3
76   4 344 Gr√∂bner, Eileen Matschh√ľhner Racing Team/ RSV Jena 1:21:33 89 w U25   1 0:27:53 w 3
77 73   363 Zwicker, Ronny Meuselwitz 1:21:35 89 m U25 9   0:27:55 m 3
78 74   326 Berger, Marko kein 1:21:39 71 m U45 55   0:27:59 m 3
79   5 376 Petrowski, Bettina Glauchau 1:21:43 76 w U45   3 0:28:03 w 3
80   6 372 √Ėhmichen, Betina Riese 1:21:59 55 w Senioren   2 0:28:19 w 3
81 75   355 Reichenbach, Rene Oberwinkel 1:22:28 97 m U25 10   0:28:48 m 3
82 76   311 Donath, Frank kein 1:22:41 72 m U45 56   0:29:01 m 3
83 77   374 Wamser, Uew Burgstein 1:24:17 64 m Senioren 11   0:30:37 m 3
84 78   384 Gehrt, S√∂ren Wildenb√∂rden 1:24:31 95 m U25 11   0:30:51 m 3
85 79   397 Teischmann, Anett L√§ndenfeld 1:24:54 79 m U45 57   0:31:14 m 3
86   7 368 K√∂hler, Dagmar Altenburg 1:25:30 78 w U45   4 0:31:50 w 3
87 80   406 Melchior, Ronny M√ľnsa/Nobitz 1:25:45 79 m U45 58   0:32:05 m 3
88 81   409 Thrandorf, Rolf Schwaaara 1:36:54 56 m Senioren 12   0:43:14 m 3
(c) 1990-2020 Blue Wonder Sport Promotion - Andreas Burow - Zeitnahme & Auswertung - www.Triathlon-Service.de